Time;durP1;ratioP1;P1;durP2;ratioP2;P2;SDS_P1;SDS_P2;PMS_P1;PMS_P2;Temp;Humidity;BMP_temperature;BMP_pressure;BME280_temperature;BME280_humidity;BME280_pressure;Samples;Min_cycle;Max_cycle;Signal;HPM_P1;HPM_P2
2021/07/16 00:00:29;;;;;;;23.67;9.03;;;;;;;20.01;81.23;98604.80;2208411;81;20945;-62
2021/07/16 00:03:29;;;;;;;29.52;9.90;;;;;;;19.93;81.84;98603.92;2181180;81;21515;-62
2021/07/16 00:06:30;;;;;;;23.27;9.08;;;;;;;19.84;81.96;98599.88;2208393;81;21016;-62
2021/07/16 00:09:31;;;;;;;27.87;10.38;;;;;;;19.82;81.61;98599.19;2208007;81;21020;-62
2021/07/16 00:12:31;;;;;;;25.37;9.95;;;;;;;19.84;81.59;98593.70;2208436;81;20995;-62
2021/07/16 00:15:31;;;;;;;25.40;9.50;;;;;;;20.01;81.55;98595.95;2207886;81;21007;-63
2021/07/16 00:18:32;;;;;;;24.72;9.38;;;;;;;20.05;81.83;98590.14;2208278;81;21471;-62
2021/07/16 00:21:32;;;;;;;28.12;10.08;;;;;;;19.98;81.97;98595.77;2208279;81;21541;-62
2021/07/16 00:24:33;;;;;;;22.10;9.40;;;;;;;20.00;81.51;98619.59;2208437;81;20966;-62
2021/07/16 00:27:33;;;;;;;23.50;9.85;;;;;;;20.04;81.60;98621.77;2208435;81;21023;-62
2021/07/16 00:30:33;;;;;;;23.98;10.03;;;;;;;20.11;81.54;98620.62;2208421;81;20992;-62
2021/07/16 00:33:34;;;;;;;27.55;10.23;;;;;;;20.20;81.40;98613.49;2208294;81;20976;-62
2021/07/16 00:36:35;;;;;;;24.87;9.28;;;;;;;20.30;81.14;98621.36;2208280;80;21036;-62
2021/07/16 00:39:35;;;;;;;27.60;10.98;;;;;;;20.33;80.79;98636.53;2208106;81;20984;-62
2021/07/16 00:42:36;;;;;;;28.42;10.98;;;;;;;20.39;81.11;98632.39;2208194;81;21040;-62
2021/07/16 00:45:36;;;;;;;25.32;10.80;;;;;;;20.25;80.92;98632.50;2199989;81;20989;-62
2021/07/16 00:48:37;;;;;;;28.40;10.68;;;;;;;20.17;80.88;98646.63;2197579;81;21020;-62
2021/07/16 00:51:38;;;;;;;26.87;10.38;;;;;;;20.15;81.00;98644.60;2197753;81;21483;-62
2021/07/16 00:54:39;;;;;;;23.40;10.40;;;;;;;20.14;81.11;98642.09;2198066;81;21460;-62
2021/07/16 00:57:39;;;;;;;27.27;10.93;;;;;;;20.04;81.05;98634.23;2197898;81;21008;-62
2021/07/16 01:00:40;;;;;;;27.50;10.38;;;;;;;19.88;81.62;98633.64;2197720;81;21021;-62
2021/07/16 01:03:41;;;;;;;27.00;10.23;;;;;;;19.80;81.56;98630.96;2197768;81;21001;-62
2021/07/16 01:06:42;;;;;;;27.00;10.85;;;;;;;19.76;81.48;98638.88;2198033;81;21527;-62
2021/07/16 01:09:42;;;;;;;29.75;10.82;;;;;;;19.81;81.72;98641.45;2197404;81;21072;-62
2021/07/16 01:12:43;;;;;;;27.80;10.60;;;;;;;19.87;82.02;98633.33;2197809;81;21033;-62
2021/07/16 01:15:43;;;;;;;27.75;10.43;;;;;;;19.84;81.60;98634.95;2197893;81;21001;-62
2021/07/16 01:18:44;;;;;;;27.80;10.90;;;;;;;19.79;81.61;98645.25;2197616;81;20997;-62
2021/07/16 01:21:44;;;;;;;26.93;10.55;;;;;;;19.88;81.55;98649.14;2197785;81;21512;-62
2021/07/16 01:24:45;;;;;;;26.90;11.43;;;;;;;19.92;81.36;98642.98;2198142;81;20989;-62
2021/07/16 01:27:45;;;;;;;27.82;11.35;;;;;;;19.96;81.40;98640.36;2197923;81;21044;-62
2021/07/16 01:30:46;;;;;;;26.50;11.40;;;;;;;19.98;81.46;98637.53;2197873;81;20977;-62
2021/07/16 01:33:46;;;;;;;29.55;11.73;;;;;;;19.90;81.29;98651.13;2197801;81;21061;-62
2021/07/16 01:36:47;;;;;;;28.98;11.38;;;;;;;19.93;81.49;98662.47;2197715;81;21005;-63
2021/07/16 01:39:47;;;;;;;26.50;11.65;;;;;;;20.01;81.43;98664.69;2197747;81;21507;-62
2021/07/16 01:42:48;;;;;;;25.20;12.28;;;;;;;20.03;81.48;98668.52;2197744;81;21005;-62
2021/07/16 01:45:48;;;;;;;25.55;11.95;;;;;;;19.97;81.39;98669.98;2205541;81;21012;-62
2021/07/16 01:48:49;;;;;;;26.40;12.60;;;;;;;20.00;81.49;98679.48;2208310;81;20973;-62
2021/07/16 01:51:49;;;;;;;27.00;11.93;;;;;;;20.03;81.39;98690.63;2208675;81;20973;-62
2021/07/16 01:54:50;;;;;;;26.80;12.23;;;;;;;20.01;81.37;98686.45;2207967;81;21017;-62
2021/07/16 01:57:50;;;;;;;30.62;12.93;;;;;;;20.01;81.50;98695.30;2208429;81;20974;-62
2021/07/16 02:00:51;;;;;;;25.45;12.40;;;;;;;20.02;81.42;98703.59;2208247;81;21470;-62
2021/07/16 02:03:52;;;;;;;26.25;11.78;;;;;;;20.00;81.39;98704.27;2208259;81;20977;-63
2021/07/16 02:06:52;;;;;;;28.43;12.97;;;;;;;20.00;81.54;98704.27;2208854;80;20981;-62
2021/07/16 02:09:53;;;;;;;31.00;13.08;;;;;;;20.00;81.58;98707.44;2208594;81;21056;-62
2021/07/16 02:12:53;;;;;;;29.90;13.90;;;;;;;19.95;81.55;98696.41;2208297;81;20997;-62
2021/07/16 02:15:54;;;;;;;29.40;12.60;;;;;;;19.93;82.00;98693.91;2208413;81;21486;-62
2021/07/16 02:18:54;;;;;;;30.43;10.80;;;;;;;19.89;81.85;98688.05;2208295;80;20992;-62
2021/07/16 02:21:55;;;;;;;29.45;12.78;;;;;;;19.89;81.71;98673.91;2208569;81;21001;-62
2021/07/16 02:24:55;;;;;;;28.40;13.40;;;;;;;19.80;81.57;98671.70;2208568;81;21009;-62
2021/07/16 02:27:56;;;;;;;26.95;12.43;;;;;;;19.66;81.56;98662.92;2208529;81;20969;-62
2021/07/16 02:30:56;;;;;;;25.80;12.20;;;;;;;19.60;81.63;98656.91;2208321;81;20966;-63
2021/07/16 02:33:57;;;;;;;27.87;12.10;;;;;;;19.60;81.83;98644.94;2208410;81;21479;-62
2021/07/16 02:36:57;;;;;;;28.95;11.78;;;;;;;19.63;81.56;98650.77;2208264;81;21511;-62
2021/07/16 02:39:57;;;;;;;26.75;11.50;;;;;;;19.64;81.56;98657.77;2208227;81;21000;-62
2021/07/16 02:42:58;;;;;;;29.45;12.70;;;;;;;19.63;81.70;98664.06;2208368;81;21016;-62
2021/07/16 02:45:59;;;;;;;28.40;14.10;;;;;;;19.64;81.63;98655.58;2205285;81;21017;-62
2021/07/16 02:48:59;;;;;;;28.25;14.23;;;;;;;19.61;81.73;98641.27;2204717;80;20972;-62
2021/07/16 02:52:00;;;;;;;30.75;12.90;;;;;;;19.63;82.02;98641.96;2204870;81;20981;-62
2021/07/16 02:55:00;;;;;;;30.37;12.47;;;;;;;19.48;82.19;98635.88;2204743;81;20969;-62
2021/07/16 02:58:01;;;;;;;30.08;12.05;;;;;;;19.35;82.28;98629.63;2204573;81;20977;-63
2021/07/16 03:01:01;;;;;;;26.10;11.38;;;;;;;19.27;82.07;98618.92;2204451;81;21475;-62
2021/07/16 03:04:02;;;;;;;27.82;10.88;;;;;;;19.22;82.69;98615.88;2204904;80;20982;-62
2021/07/16 03:07:02;;;;;;;27.80;12.58;;;;;;;19.14;82.88;98606.03;2204768;81;20977;-62
2021/07/16 03:10:02;;;;;;;26.02;11.48;;;;;;;19.01;83.09;98599.77;2204624;81;20973;-62
2021/07/16 03:13:03;;;;;;;29.40;12.98;;;;;;;18.91;82.34;98595.03;2204726;81;21011;-62
2021/07/16 03:16:03;;;;;;;28.80;13.40;;;;;;;18.80;83.18;98589.92;2204617;81;20984;-62
2021/07/16 03:19:04;;;;;;;31.85;13.10;;;;;;;18.73;83.68;98589.67;2204547;81;21507;-62
2021/07/16 03:22:04;;;;;;;26.23;12.80;;;;;;;18.77;83.60;98587.57;2204440;81;20993;-62
2021/07/16 03:25:05;;;;;;;29.95;12.68;;;;;;;18.87;83.55;98581.71;2204451;81;21020;-63
2021/07/16 03:28:05;;;;;;;31.27;13.38;;;;;;;19.02;83.52;98578.86;2204876;81;21064;-62
2021/07/16 03:31:05;;;;;;;34.43;14.70;;;;;;;19.13;83.19;98588.40;2204701;81;21004;-62
2021/07/16 03:34:06;;;;;;;37.75;15.50;;;;;;;19.25;83.39;98585.50;2204432;81;21004;-62
2021/07/16 03:37:06;;;;;;;34.92;16.40;;;;;;;19.47;83.54;98579.67;2204563;81;20976;-62
2021/07/16 03:40:07;;;;;;;37.78;16.05;;;;;;;19.67;83.13;98565.66;2204429;81;21451;-62
2021/07/16 03:43:07;;;;;;;35.70;15.80;;;;;;;19.78;83.09;98572.52;2204706;80;21004;-62
2021/07/16 03:46:08;;;;;;;33.95;15.83;;;;;;;19.80;82.95;98571.91;2199634;81;21036;-62
2021/07/16 03:49:09;;;;;;;32.20;14.68;;;;;;;19.79;82.61;98574.73;2197668;81;20989;-62
2021/07/16 03:52:09;;;;;;;34.20;13.62;;;;;;;19.80;82.79;98583.89;2197806;81;20989;-62
2021/07/16 03:55:09;;;;;;;36.93;13.20;;;;;;;19.86;82.83;98576.59;2197739;81;21559;-62
2021/07/16 03:58:10;;;;;;;33.18;14.45;;;;;;;20.00;82.66;98585.81;2197622;81;21484;-62
2021/07/16 04:01:11;;;;;;;35.58;13.53;;;;;;;20.11;82.59;98591.33;2197567;81;21579;-62
2021/07/16 04:04:11;;;;;;;31.93;12.88;;;;;;;20.20;82.15;98590.86;2198170;81;20982;-62
2021/07/16 04:07:17;;;;;;;35.48;13.88;;;;;;;20.23;82.12;98583.91;2197915;81;21073;-62
2021/07/16 04:10:14;;;;;;;30.45;13.22;;;;;;;20.33;81.95;98587.27;2178907;81;21039;-62
2021/07/16 04:13:15;;;;;;;28.87;14.15;;;;;;;20.37;81.87;98584.62;2197884;81;21033;-62
2021/07/16 04:16:15;;;;;;;35.03;14.30;;;;;;;20.39;81.99;98581.28;2197906;81;20973;-62
2021/07/16 04:19:15;;;;;;;33.33;14.28;;;;;;;20.37;81.79;98587.76;2197581;81;20986;-62
2021/07/16 04:22:16;;;;;;;29.92;13.18;;;;;;;20.34;82.13;98590.27;2197484;81;21534;-62
2021/07/16 04:25:18;;;;;;;28.93;13.83;;;;;;;20.41;82.17;98603.28;2198269;81;21484;-62
2021/07/16 04:28:19;;;;;;;27.27;12.45;;;;;;;20.49;82.21;98605.12;2197779;81;21084;-62
2021/07/16 04:31:19;;;;;;;29.23;13.10;;;;;;;20.59;82.09;98601.81;2197794;81;20985;-62
2021/07/16 04:34:20;;;;;;;35.23;13.43;;;;;;;20.67;81.90;98595.68;2197816;81;21500;-62
2021/07/16 04:37:20;;;;;;;30.68;12.73;;;;;;;20.73;81.76;98607.52;2197689;81;20978;-62
2021/07/16 04:40:21;;;;;;;32.08;14.38;;;;;;;20.73;81.70;98615.03;2197751;81;21025;-62
2021/07/16 04:43:21;;;;;;;33.48;14.55;;;;;;;20.69;81.50;98620.86;2197892;81;21098;-62
2021/07/16 04:46:21;;;;;;;32.20;14.15;;;;;;;20.69;81.71;98620.86;2197686;81;21040;-62
2021/07/16 04:49:22;;;;;;;35.98;14.23;;;;;;;20.71;81.63;98625.00;2197456;81;21008;-62
2021/07/16 04:52:23;;;;;;;31.25;14.28;;;;;;;20.69;81.82;98628.34;2197761;81;21452;-62
2021/07/16 04:55:24;;;;;;;40.25;14.93;;;;;;;20.80;81.67;98635.69;2197700;81;21049;-62
2021/07/16 04:58:24;;;;;;;29.65;14.80;;;;;;;20.93;81.60;98636.89;2197744;81;20957;-62
2021/07/16 05:01:24;;;;;;;32.10;15.13;;;;;;;21.07;81.15;98638.55;2197601;81;20985;-62
2021/07/16 05:04:25;;;;;;;30.68;16.42;;;;;;;21.24;80.77;98641.56;2197730;81;21456;-62
2021/07/16 05:07:25;;;;;;;34.30;15.53;;;;;;;21.34;80.57;98648.58;2197738;81;20961;-63
2021/07/16 05:10:26;;;;;;;32.38;15.55;;;;;;;21.39;80.08;98657.75;2197745;81;20965;-62
2021/07/16 05:13:27;;;;;;;35.20;15.88;;;;;;;21.43;80.03;98661.75;2197973;81;20985;-62
2021/07/16 05:16:27;;;;;;;30.67;15.80;;;;;;;21.52;80.34;98665.28;2197803;81;21001;-62
2021/07/16 05:19:28;;;;;;;30.73;15.17;;;;;;;21.58;80.27;98669.94;2198025;81;20977;-62
2021/07/16 05:22:28;;;;;;;34.73;16.00;;;;;;;21.62;79.95;98679.28;2197982;81;21527;-62
2021/07/16 05:25:29;;;;;;;32.13;16.45;;;;;;;21.72;79.56;98680.92;2198189;81;21524;-62
2021/07/16 05:28:29;;;;;;;34.73;16.65;;;;;;;21.77;79.51;98683.42;2198188;81;20938;-62
2021/07/16 05:31:30;;;;;;;35.08;16.40;;;;;;;21.74;79.32;98689.09;2198364;81;21033;-62
2021/07/16 05:34:30;;;;;;;36.83;15.83;;;;;;;21.75;79.48;98694.78;2198456;81;20950;-62
2021/07/16 05:37:31;;;;;;;32.30;16.05;;;;;;;21.79;79.21;98708.13;2198321;81;21069;-62
2021/07/16 05:40:31;;;;;;;29.98;15.48;;;;;;;21.89;78.98;98709.77;2198380;81;21016;-62
2021/07/16 05:43:32;;;;;;;34.10;16.45;;;;;;;22.00;78.89;98718.77;2197930;81;20978;-62
2021/07/16 05:46:33;;;;;;;28.53;15.10;;;;;;;22.06;79.08;98723.92;2202391;81;21483;-62
2021/07/16 05:49:33;;;;;;;30.23;15.07;;;;;;;22.00;78.44;98731.30;2204830;80;21575;-62
2021/07/16 05:52:34;;;;;;;30.60;16.23;;;;;;;21.99;79.01;98734.44;2204938;81;21000;-62
2021/07/16 05:55:34;;;;;;;43.95;16.23;;;;;;;22.10;79.15;98735.94;2204958;81;21025;-62
2021/07/16 05:58:35;;;;;;;28.83;14.63;;;;;;;22.40;79.26;98727.71;2205031;80;20981;-62
2021/07/16 06:01:35;;;;;;;29.17;15.27;;;;;;;22.91;78.69;98725.97;2204602;81;21040;-62
2021/07/16 06:04:35;;;;;;;28.67;16.10;;;;;;;23.41;77.12;98721.70;2204750;81;20961;-62
2021/07/16 06:07:36;;;;;;;31.43;13.47;;;;;;;23.90;76.24;98716.46;2204858;81;21444;-63
2021/07/16 06:10:36;;;;;;;31.47;14.10;;;;;;;24.40;75.03;98725.64;2205083;81;20961;-62
2021/07/16 06:13:37;;;;;;;28.57;14.40;;;;;;;24.62;75.04;98726.56;2204831;81;21001;-63
2021/07/16 06:16:37;;;;;;;26.43;13.03;;;;;;;24.81;73.64;98726.52;2218102;80;20971;-63
2021/07/16 06:19:38;;;;;;;28.07;13.43;;;;;;;24.97;72.83;98732.66;2229072;80;20992;-63
2021/07/16 06:22:38;;;;;;;29.00;13.90;;;;;;;25.11;71.59;98727.76;2228959;80;21035;-63
2021/07/16 06:25:39;;;;;;;26.47;12.87;;;;;;;25.20;71.75;98733.34;2229118;80;21545;-63
2021/07/16 06:28:39;;;;;;;25.53;11.17;;;;;;;25.12;72.41;98732.11;2228747;80;21007;-64
2021/07/16 06:31:40;;;;;;;25.00;10.87;;;;;;;25.39;71.33;98731.91;2229134;80;21015;-63
2021/07/16 06:34:40;;;;;;;28.50;11.67;;;;;;;25.68;70.67;98730.63;2229557;80;20980;-63
2021/07/16 06:37:41;;;;;;;26.90;12.23;;;;;;;25.78;69.48;98732.98;2229413;80;21067;-64
2021/07/16 06:40:41;;;;;;;27.23;12.83;;;;;;;25.81;69.80;98728.56;2229212;80;21019;-63
2021/07/16 06:43:42;;;;;;;28.17;12.43;;;;;;;25.94;69.84;98724.09;2229989;80;21652;-63
2021/07/16 06:46:42;;;;;;;28.43;12.90;;;;;;;25.98;68.48;98727.77;2205920;80;21546;-62
2021/07/16 06:49:45;;;;;;;27.90;12.23;;;;;;;25.86;69.01;98726.10;2197633;81;20974;-62
2021/07/16 06:52:45;;;;;;;27.37;11.68;;;;;;;25.50;68.54;98727.89;2192167;81;21062;-63
2021/07/16 06:55:46;;;;;;;27.17;11.53;;;;;;;24.92;69.60;98734.57;2181006;81;21441;-64
2021/07/16 06:58:46;;;;;;;27.77;11.47;;;;;;;24.58;70.38;98737.83;2171580;81;21014;-63
2021/07/16 07:01:46;;;;;;;25.47;12.30;;;;;;;24.35;71.33;98742.28;2172476;81;21018;-62
2021/07/16 07:04:47;;;;;;;25.97;13.00;;;;;;;24.37;71.78;98748.28;2172255;82;20943;-63
2021/07/16 07:07:47;;;;;;;25.60;12.27;;;;;;;24.66;71.39;98753.33;2171772;81;21064;-62
2021/07/16 07:10:48;;;;;;;27.90;11.70;;;;;;;24.85;70.76;98753.78;2171308;81;20987;-63
2021/07/16 07:13:49;;;;;;;30.03;11.80;;;;;;;25.28;69.71;98751.69;2201066;81;21070;-63
2021/07/16 07:16:49;;;;;;;27.90;11.97;;;;;;;25.36;69.61;98755.63;2210182;81;21024;-63
2021/07/16 07:19:50;;;;;;;26.13;11.50;;;;;;;25.19;69.02;98760.38;2209823;81;21004;-63
2021/07/16 07:22:50;;;;;;;26.33;10.90;;;;;;;25.39;69.27;98752.56;2210307;81;21057;-63
2021/07/16 07:25:50;;;;;;;22.73;10.83;;;;;;;25.74;68.20;98750.80;2209997;81;21036;-64
2021/07/16 07:28:51;;;;;;;23.40;10.07;;;;;;;26.22;67.72;98752.02;2210372;81;21456;-64
2021/07/16 07:31:52;;;;;;;25.30;9.93;;;;;;;26.52;64.14;98746.41;2209990;81;21519;-63
2021/07/16 07:34:52;;;;;;;26.37;9.60;;;;;;;26.32;65.36;98744.95;2210239;81;20997;-64
2021/07/16 07:37:52;;;;;;;25.27;10.30;;;;;;;26.25;63.12;98732.84;2209728;81;21020;-64
2021/07/16 07:40:53;;;;;;;21.90;10.43;;;;;;;26.10;65.32;98735.13;2210032;81;20974;-64
2021/07/16 07:43:54;;;;;;;26.93;11.70;;;;;;;26.15;65.27;98733.19;2209990;81;21017;-64
2021/07/16 07:46:54;;;;;;;23.73;11.07;;;;;;;26.00;65.26;98732.42;2220458;80;21009;-62
2021/07/16 07:49:55;;;;;;;24.00;10.17;;;;;;;25.80;64.50;98733.08;2227276;80;21042;-63
2021/07/16 07:52:55;;;;;;;24.90;10.50;;;;;;;25.89;64.38;98719.84;2227370;80;21496;-63
2021/07/16 07:55:56;;;;;;;26.07;11.73;;;;;;;25.87;64.02;98728.59;2227349;80;20965;-63
2021/07/16 07:58:56;;;;;;;27.10;11.03;;;;;;;25.99;63.98;98732.09;2227248;80;20973;-64
2021/07/16 08:01:57;;;;;;;23.63;10.80;;;;;;;25.78;62.94;98739.17;2227550;80;20966;-64
2021/07/16 08:04:57;;;;;;;26.50;12.20;;;;;;;25.86;64.16;98745.77;2227173;80;21029;-64
2021/07/16 08:07:58;;;;;;;26.30;11.77;;;;;;;26.33;65.15;98739.91;2227393;80;20934;-65
2021/07/16 08:10:58;;;;;;;26.93;11.53;;;;;;;27.04;64.47;98749.56;2227206;80;21039;-64
2021/07/16 08:13:58;;;;;;;24.77;10.87;;;;;;;27.61;61.79;98749.63;2227459;80;21523;-63
2021/07/16 08:16:59;;;;;;;27.27;11.90;;;;;;;28.08;62.41;98753.69;2227324;80;21559;-64
2021/07/16 08:19:59;;;;;;;25.03;11.37;;;;;;;28.16;60.41;98750.78;2227173;80;20973;-63
2021/07/16 08:23:00;;;;;;;25.37;11.47;;;;;;;28.04;60.22;98755.66;2227531;80;20989;-64
2021/07/16 08:26:00;;;;;;;24.23;11.73;;;;;;;27.79;60.20;98763.82;2227156;80;20934;-64
2021/07/16 08:29:01;;;;;;;27.63;11.80;;;;;;;27.61;60.84;98762.25;2227576;80;21047;-64
2021/07/16 08:32:01;;;;;;;24.43;11.30;;;;;;;27.43;60.85;98769.06;2226888;80;21017;-64
2021/07/16 08:35:01;;;;;;;27.50;10.93;;;;;;;27.24;61.22;98760.38;2227387;80;21031;-64
2021/07/16 08:38:02;;;;;;;26.53;10.93;;;;;;;27.18;61.24;98757.17;2227333;80;21004;-64
2021/07/16 08:41:02;;;;;;;24.20;10.87;;;;;;;27.53;61.21;98754.36;2226914;80;20965;-63
2021/07/16 08:44:03;;;;;;;24.72;11.00;;;;;;;28.21;60.65;98754.19;2227238;80;21511;-64
2021/07/16 08:47:04;;;;;;;25.17;10.10;;;;;;;28.59;59.25;98758.89;2227289;80;21531;-64
2021/07/16 08:50:04;;;;;;;26.13;10.33;;;;;;;28.91;57.71;98752.25;2227533;80;21017;-65
2021/07/16 08:53:05;;;;;;;22.90;10.17;;;;;;;29.00;56.50;98756.88;2227290;80;20942;-63
2021/07/16 08:56:05;;;;;;;23.03;10.47;;;;;;;29.18;57.87;98758.34;2226985;80;20946;-65
2021/07/16 08:59:08;;;;;;;23.23;9.77;;;;;;;29.52;57.45;98759.02;2227246;80;20993;-63
2021/07/16 09:02:08;;;;;;;24.57;11.15;;;;;;;29.91;56.02;98756.77;2198690;80;21527;-63
2021/07/16 09:05:10;;;;;;;23.90;10.90;;;;;;;30.19;54.10;98751.72;2227681;80;21025;-63
2021/07/16 09:08:11;;;;;;;24.85;10.48;;;;;;;30.08;54.12;98764.61;2227520;80;21064;-63
2021/07/16 09:11:13;;;;;;;23.15;9.65;;;;;;;30.24;54.88;98767.27;2227434;80;21050;-65
2021/07/16 09:14:14;;;;;;;21.40;9.68;;;;;;;30.54;53.69;98774.70;2227392;80;21084;-64
2021/07/16 09:17:15;;;;;;;24.17;10.20;;;;;;;31.05;55.22;98767.27;2227155;80;21498;-63
2021/07/16 09:20:16;;;;;;;22.90;10.20;;;;;;;31.32;53.18;98764.17;2226968;80;21077;-65
2021/07/16 09:23:16;;;;;;;24.83;11.03;;;;;;;31.83;53.29;98764.70;2227560;80;20989;-64
2021/07/16 09:26:23;;;;;;;29.70;11.77;;;;;;;32.02;51.52;98766.77;2227506;80;21051;-65
2021/07/16 09:29:19;;;;;;;24.90;10.78;;;;;;;31.67;50.67;98771.63;2199218;80;20966;-64
2021/07/16 09:32:20;;;;;;;22.47;10.80;;;;;;;31.07;50.89;98765.14;2227443;80;21009;-65
2021/07/16 09:35:21;;;;;;;;;;;;;;;30.50;52.17;98771.63;2229399;80;21562;-63
2021/07/16 09:38:24;;;;;;;29.30;11.63;;;;;;;30.19;51.84;98779.30;2227290;80;20088;-63
2021/07/16 09:41:23;;;;;;;24.95;10.65;;;;;;;30.03;52.35;98775.28;2198693;80;21508;-64
2021/07/16 09:44:24;;;;;;;25.97;11.40;;;;;;;29.94;52.26;98776.59;2228094;80;21040;-64
2021/07/16 09:47:24;;;;;;;25.23;11.70;;;;;;;29.76;52.31;98771.94;2216972;80;21017;-63
2021/07/16 09:50:25;;;;;;;25.27;10.73;;;;;;;29.72;52.57;98776.44;2210535;81;20982;-64
2021/07/16 09:53:26;;;;;;;26.40;11.17;;;;;;;29.54;52.01;98780.41;2210426;81;21573;-65
2021/07/16 09:56:27;;;;;;;23.52;11.03;;;;;;;29.33;51.72;98774.81;2209592;81;21032;-64
2021/07/16 09:59:27;;;;;;;24.50;11.30;;;;;;;29.18;52.69;98783.19;2210048;81;21036;-63
2021/07/16 10:02:30;;;;;;;23.37;10.67;;;;;;;29.17;52.80;98778.28;2210589;80;21008;-63
2021/07/16 10:05:30;;;;;;;24.67;10.82;;;;;;;29.27;53.68;98777.86;2188853;81;21020;-64
2021/07/16 10:08:30;;;;;;;22.93;11.00;;;;;;;29.13;52.64;98773.54;2210606;81;20957;-63
2021/07/16 10:11:31;;;;;;;23.77;10.93;;;;;;;29.15;53.52;98776.34;2210620;81;21016;-63
2021/07/16 10:14:31;;;;;;;25.87;11.47;;;;;;;29.47;52.55;98781.79;2210779;81;20984;-64
2021/07/16 10:17:32;;;;;;;23.73;10.37;;;;;;;29.87;52.91;98776.67;2210731;81;21548;-63
2021/07/16 10:20:32;;;;;;;26.23;10.93;;;;;;;30.36;51.13;98782.26;2210794;81;21485;-63
2021/07/16 10:23:33;;;;;;;23.07;10.60;;;;;;;30.65;50.87;98781.25;2208912;81;21072;-63
2021/07/16 10:26:33;;;;;;;26.17;10.27;;;;;;;30.92;50.91;98775.81;2209116;81;21088;-63
2021/07/16 10:29:34;;;;;;;25.77;10.10;;;;;;;31.09;52.17;98770.64;2209139;81;21008;-63
2021/07/16 10:32:34;;;;;;;22.62;10.20;;;;;;;31.49;49.83;98766.52;2209373;81;21024;-63
2021/07/16 10:35:35;;;;;;;22.93;10.37;;;;;;;31.77;50.01;98766.45;2209851;81;21034;-63
2021/07/16 10:38:35;;;;;;;23.57;9.85;;;;;;;31.90;47.27;98771.65;2209914;81;21483;-63
2021/07/16 10:41:37;;;;;;;21.70;9.23;;;;;;;31.74;48.59;98770.45;2210475;81;21024;-64
2021/07/16 10:44:38;;;;;;;25.32;9.30;;;;;;;31.89;46.34;98774.05;2210408;81;20981;-63
2021/07/16 10:47:38;;;;;;;21.15;8.95;;;;;;;31.82;47.64;98766.56;2210404;81;21017;-64
2021/07/16 10:50:39;;;;;;;22.70;9.08;;;;;;;32.16;46.71;98764.69;2210387;81;21551;-64
2021/07/16 10:53:40;;;;;;;23.77;9.23;;;;;;;32.52;45.40;98766.30;2210424;81;21479;-63
2021/07/16 10:56:41;;;;;;;21.90;8.98;;;;;;;32.68;45.36;98766.66;2210382;81;20974;-63
2021/07/16 10:59:41;;;;;;;21.42;8.65;;;;;;;32.85;44.50;98760.77;2210635;81;20997;-63
2021/07/16 11:02:42;;;;;;;21.42;8.48;;;;;;;32.78;45.19;98760.08;2210360;81;20992;-63
2021/07/16 11:05:44;;;;;;;;;;;;;;;33.13;45.31;98757.77;2213075;81;20949;-63
2021/07/16 11:08:44;;;;;;;23.92;8.25;;;;;;;33.39;44.91;98754.20;2210375;81;20128;-65
2021/07/16 11:11:45;;;;;;;;;;;;;;;33.49;42.65;98755.21;2213054;81;20985;-63
2021/07/16 11:14:45;;;;;;;20.33;8.20;;;;;;;33.39;42.21;98752.84;2210671;80;20371;-64
2021/07/16 11:17:45;;;;;;;;;;;;;;;33.36;41.88;98751.45;2212894;81;21059;-64
2021/07/16 11:20:46;;;;;;;24.70;8.03;;;;;;;33.58;42.04;98749.38;2210513;80;20104;-63
2021/07/16 11:23:46;;;;;;;;;;;;;;;33.57;40.60;98746.36;2213156;81;20961;-63
2021/07/16 11:26:47;;;;;;;21.57;7.73;;;;;;;33.26;40.40;98745.81;2210658;80;20097;-63
2021/07/16 11:29:47;;;;;;;;;;;;;;;33.19;41.26;98745.10;2213024;81;21463;-63
2021/07/16 11:32:48;;;;;;;20.17;8.15;;;;;;;33.49;41.64;98742.98;2210203;81;20439;-63
2021/07/16 11:35:49;;;;;;;;;;;;;;;33.57;40.72;98741.73;2213009;81;20949;-65
2021/07/16 11:38:50;;;;;;;22.37;8.93;;;;;;;33.75;40.40;98739.36;2210476;81;20097;-65
2021/07/16 11:41:50;;;;;;;;;;;;;;;33.77;39.81;98734.48;2212965;81;21538;-67
2021/07/16 11:44:50;;;;;;;19.53;7.87;;;;;;;33.42;39.39;98739.59;2210573;80;20395;-66
2021/07/16 11:47:51;;;;;;;;;;;;;;;33.30;41.71;98747.82;2218683;80;20961;-65
2021/07/16 11:50:52;;;;;;;21.83;8.27;;;;;;;33.59;40.95;98745.56;2221185;80;20136;-65
2021/07/16 11:53:53;;;;;;;23.77;8.33;;;;;;;33.48;39.08;98744.04;2220528;80;21111;-64
2021/07/16 11:56:53;;;;;;;;;;;;;;;33.40;39.78;98744.98;2223144;80;21091;-66
2021/07/16 11:59:54;;;;;;;19.03;7.70;;;;;;;33.36;39.58;98743.30;2220741;80;20167;-64
2021/07/16 12:02:54;;;;;;;;;;;;;;;33.13;37.85;98739.59;2223372;80;21320;-63
2021/07/16 12:05:55;;;;;;;22.32;7.70;;;;;;;32.56;38.13;98736.80;2220575;80;20119;-63
2021/07/16 12:08:56;;;;;;;19.52;7.87;;;;;;;32.34;39.01;98736.59;2220242;80;21519;-63
2021/07/16 12:11:57;;;;;;;;;;;;;;;32.42;38.55;98734.33;2223245;80;20996;-63
2021/07/16 12:14:58;;;;;;;22.37;7.95;;;;;;;32.49;40.51;98733.40;2220597;80;20167;-63
2021/07/16 12:17:59;;;;;;;23.32;8.85;;;;;;;32.68;39.17;98718.61;2220558;80;21060;-63
2021/07/16 12:21:00;;;;;;;;;;;;;;;32.93;40.09;98722.38;2223299;80;21423;-63
2021/07/16 12:24:00;;;;;;;19.53;7.60;;;;;;;33.23;37.81;98721.84;2220745;80;20133;-63
2021/07/16 12:27:01;;;;;;;19.42;7.53;;;;;;;33.17;39.13;98724.97;2221001;80;20972;-63
2021/07/16 12:30:01;;;;;;;;;;;;;;;33.26;37.61;98721.35;2223264;80;20972;-63
2021/07/16 12:33:02;;;;;;;20.53;7.73;;;;;;;33.14;37.25;98722.75;2220852;80;20416;-63
2021/07/16 12:36:02;;;;;;;21.37;8.33;;;;;;;33.22;38.03;98718.86;2220565;80;21052;-63
2021/07/16 12:39:02;;;;;;;;;;;;;;;33.61;38.76;98714.90;2223240;80;20984;-63
2021/07/16 12:42:03;;;;;;;21.33;8.70;;;;;;;33.91;37.09;98720.02;2220642;80;20096;-63
2021/07/16 12:45:04;;;;;;;20.30;8.30;;;;;;;34.16;36.92;98716.02;2220425;80;21044;-64
2021/07/16 12:48:05;;;;;;;;;;;;;;;34.26;36.53;98710.71;2216944;80;21040;-63
2021/07/16 12:51:05;;;;;;;20.80;8.37;;;;;;;34.45;36.67;98714.53;2210574;80;20096;-63
2021/07/16 12:54:06;;;;;;;21.27;8.53;;;;;;;34.70;38.38;98714.84;2210404;81;20981;-64
2021/07/16 12:57:06;;;;;;;24.10;8.80;;;;;;;35.00;38.43;98716.84;2210254;81;20997;-64
2021/07/16 13:00:07;;;;;;;20.17;7.92;;;;;;;35.37;38.20;98714.23;2210547;81;20965;-64
2021/07/16 13:03:07;;;;;;;23.50;8.30;;;;;;;35.55;37.50;98713.02;2210397;81;21052;-64
2021/07/16 13:06:07;;;;;;;20.62;8.45;;;;;;;35.76;37.58;98707.73;2210392;81;21522;-64
2021/07/16 13:09:08;;;;;;;22.80;8.30;;;;;;;36.02;37.02;98706.02;2209910;81;21523;-64
2021/07/16 13:12:10;;;;;;;21.17;8.45;;;;;;;35.99;35.58;98707.08;2210250;81;21005;-64
2021/07/16 13:15:10;;;;;;;20.50;8.00;;;;;;;35.50;36.86;98709.42;2210168;81;21049;-65
2021/07/16 13:18:11;;;;;;;21.10;8.50;;;;;;;34.67;36.72;98707.73;2210290;81;20973;-65
2021/07/16 13:21:11;;;;;;;19.30;7.47;;;;;;;33.98;36.84;98713.06;2210108;81;21538;-63
2021/07/16 13:24:12;;;;;;;;;;;;;;;33.31;36.81;98705.97;2212835;81;21004;-63
2021/07/16 13:27:12;;;;;;;20.83;8.13;;;;;;;33.05;37.15;98703.30;2210549;80;20128;-64
2021/07/16 13:30:13;;;;;;;;;;;;;;;32.74;37.96;98702.73;2213090;81;20969;-64
2021/07/16 13:33:13;;;;;;;21.05;7.90;;;;;;;33.02;37.62;98700.27;2210604;80;20151;-64
2021/07/16 13:36:14;;;;;;;21.05;7.80;;;;;;;32.68;38.09;98700.97;2210211;81;21613;-64
2021/07/16 13:39:14;;;;;;;22.90;8.30;;;;;;;32.15;38.69;98695.22;2210377;81;21510;-63
2021/07/16 13:42:14;;;;;;;22.02;8.05;;;;;;;31.73;39.38;98696.14;2210223;81;20996;-63
2021/07/16 13:45:15;;;;;;;23.52;9.13;;;;;;;31.50;40.46;98698.27;2210354;81;20980;-64
2021/07/16 13:48:16;;;;;;;19.82;8.63;;;;;;;32.13;40.88;98694.91;2215991;80;21031;-64
2021/07/16 13:51:17;;;;;;;22.40;8.58;;;;;;;32.53;39.36;98688.44;2220492;80;20976;-64
2021/07/16 13:54:17;;;;;;;21.27;8.73;;;;;;;32.21;39.83;98700.53;2220897;80;21051;-64
2021/07/16 13:57:20;;;;;;;22.22;8.65;;;;;;;31.91;39.59;98701.96;2220811;80;21482;-64